sensor_id;sensor_type;location;lat;lon;timestamp;P1;durP1;ratioP1;P2;durP2;ratioP2
7199;SDS011;3641;49.082;8.200;2023-03-01T00:01:25;20.08;;;11.18;;
7199;SDS011;3641;49.082;8.200;2023-03-01T00:03:53;20.15;;;11.68;;
7199;SDS011;3641;49.082;8.200;2023-03-01T00:06:20;19.30;;;11.40;;
7199;SDS011;3641;49.082;8.200;2023-03-01T00:08:47;19.75;;;10.70;;
7199;SDS011;3641;49.082;8.200;2023-03-01T00:11:15;24.48;;;11.50;;
7199;SDS011;3641;49.082;8.200;2023-03-01T00:13:43;19.77;;;11.30;;
7199;SDS011;3641;49.082;8.200;2023-03-01T00:16:14;22.40;;;12.43;;
7199;SDS011;3641;49.082;8.200;2023-03-01T00:18:44;21.67;;;11.32;;
7199;SDS011;3641;49.082;8.200;2023-03-01T00:21:11;23.85;;;11.70;;
7199;SDS011;3641;49.082;8.200;2023-03-01T00:23:38;21.80;;;11.70;;
7199;SDS011;3641;49.082;8.200;2023-03-01T00:26:05;19.42;;;11.07;;
7199;SDS011;3641;49.082;8.200;2023-03-01T00:28:33;21.88;;;11.30;;
7199;SDS011;3641;49.082;8.200;2023-03-01T00:31:02;21.10;;;11.88;;
7199;SDS011;3641;49.082;8.200;2023-03-01T00:33:29;20.40;;;11.55;;
7199;SDS011;3641;49.082;8.200;2023-03-01T00:35:58;22.65;;;11.57;;
7199;SDS011;3641;49.082;8.200;2023-03-01T00:38:25;26.65;;;12.13;;
7199;SDS011;3641;49.082;8.200;2023-03-01T00:40:52;21.42;;;11.68;;
7199;SDS011;3641;49.082;8.200;2023-03-01T00:43:18;20.70;;;11.43;;
7199;SDS011;3641;49.082;8.200;2023-03-01T00:45:45;22.23;;;11.52;;
7199;SDS011;3641;49.082;8.200;2023-03-01T00:48:12;21.85;;;11.80;;
7199;SDS011;3641;49.082;8.200;2023-03-01T00:50:39;22.83;;;11.88;;
7199;SDS011;3641;49.082;8.200;2023-03-01T00:53:07;23.63;;;12.00;;
7199;SDS011;3641;49.082;8.200;2023-03-01T00:55:33;18.88;;;11.10;;
7199;SDS011;3641;49.082;8.200;2023-03-01T00:58:01;24.13;;;12.63;;
7199;SDS011;3641;49.082;8.200;2023-03-01T01:00:28;22.50;;;11.63;;
7199;SDS011;3641;49.082;8.200;2023-03-01T01:02:54;21.25;;;11.80;;
7199;SDS011;3641;49.082;8.200;2023-03-01T01:05:21;23.38;;;11.73;;
7199;SDS011;3641;49.082;8.200;2023-03-01T01:07:47;24.75;;;11.85;;
7199;SDS011;3641;49.082;8.200;2023-03-01T01:10:15;22.48;;;11.55;;
7199;SDS011;3641;49.082;8.200;2023-03-01T01:12:43;21.67;;;12.40;;
7199;SDS011;3641;49.082;8.200;2023-03-01T01:15:10;21.77;;;12.07;;
7199;SDS011;3641;49.082;8.200;2023-03-01T01:17:38;23.60;;;11.32;;
7199;SDS011;3641;49.082;8.200;2023-03-01T01:20:05;20.42;;;11.25;;
7199;SDS011;3641;49.082;8.200;2023-03-01T01:22:33;26.63;;;12.10;;
7199;SDS011;3641;49.082;8.200;2023-03-01T01:24:59;19.70;;;10.98;;
7199;SDS011;3641;49.082;8.200;2023-03-01T01:27:27;21.40;;;12.02;;
7199;SDS011;3641;49.082;8.200;2023-03-01T01:29:55;21.55;;;11.82;;
7199;SDS011;3641;49.082;8.200;2023-03-01T01:32:22;20.02;;;11.70;;
7199;SDS011;3641;49.082;8.200;2023-03-01T01:34:48;21.27;;;11.98;;
7199;SDS011;3641;49.082;8.200;2023-03-01T01:37:15;20.27;;;11.15;;
7199;SDS011;3641;49.082;8.200;2023-03-01T01:39:41;23.52;;;12.40;;
7199;SDS011;3641;49.082;8.200;2023-03-01T01:42:09;27.58;;;12.43;;
7199;SDS011;3641;49.082;8.200;2023-03-01T01:44:44;22.33;;;11.75;;
7199;SDS011;3641;49.082;8.200;2023-03-01T01:47:12;23.27;;;11.75;;
7199;SDS011;3641;49.082;8.200;2023-03-01T01:49:44;20.98;;;11.38;;
7199;SDS011;3641;49.082;8.200;2023-03-01T01:52:14;22.55;;;11.88;;
7199;SDS011;3641;49.082;8.200;2023-03-01T01:54:44;21.95;;;11.63;;
7199;SDS011;3641;49.082;8.200;2023-03-01T01:57:16;22.33;;;12.02;;
7199;SDS011;3641;49.082;8.200;2023-03-01T01:59:47;20.95;;;11.98;;
7199;SDS011;3641;49.082;8.200;2023-03-01T02:02:17;22.15;;;11.80;;
7199;SDS011;3641;49.082;8.200;2023-03-01T02:04:44;19.83;;;11.02;;
7199;SDS011;3641;49.082;8.200;2023-03-01T02:07:14;22.73;;;12.75;;
7199;SDS011;3641;49.082;8.200;2023-03-01T02:09:42;26.27;;;12.52;;
7199;SDS011;3641;49.082;8.200;2023-03-01T02:12:12;23.92;;;11.98;;
7199;SDS011;3641;49.082;8.200;2023-03-01T02:14:39;21.10;;;11.57;;
7199;SDS011;3641;49.082;8.200;2023-03-01T02:17:07;22.80;;;12.10;;
7199;SDS011;3641;49.082;8.200;2023-03-01T02:19:38;24.83;;;12.60;;
7199;SDS011;3641;49.082;8.200;2023-03-01T02:22:15;27.98;;;13.35;;
7199;SDS011;3641;49.082;8.200;2023-03-01T02:24:50;23.17;;;12.52;;
7199;SDS011;3641;49.082;8.200;2023-03-01T02:27:28;22.48;;;11.68;;
7199;SDS011;3641;49.082;8.200;2023-03-01T02:30:00;21.40;;;11.60;;
7199;SDS011;3641;49.082;8.200;2023-03-01T02:32:27;23.88;;;12.75;;
7199;SDS011;3641;49.082;8.200;2023-03-01T02:34:54;21.70;;;11.73;;
7199;SDS011;3641;49.082;8.200;2023-03-01T02:37:22;23.50;;;13.02;;
7199;SDS011;3641;49.082;8.200;2023-03-01T02:39:51;23.20;;;12.63;;
7199;SDS011;3641;49.082;8.200;2023-03-01T02:42:26;21.67;;;11.90;;
7199;SDS011;3641;49.082;8.200;2023-03-01T02:44:56;21.90;;;12.70;;
7199;SDS011;3641;49.082;8.200;2023-03-01T02:47:24;23.65;;;12.13;;
7199;SDS011;3641;49.082;8.200;2023-03-01T02:49:50;22.90;;;12.65;;
7199;SDS011;3641;49.082;8.200;2023-03-01T02:52:22;22.80;;;12.52;;
7199;SDS011;3641;49.082;8.200;2023-03-01T02:54:57;21.77;;;12.05;;
7199;SDS011;3641;49.082;8.200;2023-03-01T02:57:27;24.20;;;12.50;;
7199;SDS011;3641;49.082;8.200;2023-03-01T02:59:56;22.77;;;12.07;;
7199;SDS011;3641;49.082;8.200;2023-03-01T03:02:26;24.30;;;13.13;;
7199;SDS011;3641;49.082;8.200;2023-03-01T03:05:03;23.27;;;12.70;;
7199;SDS011;3641;49.082;8.200;2023-03-01T03:07:33;25.73;;;12.75;;
7199;SDS011;3641;49.082;8.200;2023-03-01T03:10:00;24.45;;;12.90;;
7199;SDS011;3641;49.082;8.200;2023-03-01T03:12:27;25.05;;;13.00;;
7199;SDS011;3641;49.082;8.200;2023-03-01T03:14:54;24.90;;;12.73;;
7199;SDS011;3641;49.082;8.200;2023-03-01T03:17:20;23.63;;;12.10;;
7199;SDS011;3641;49.082;8.200;2023-03-01T03:19:48;22.67;;;12.48;;
7199;SDS011;3641;49.082;8.200;2023-03-01T03:22:15;24.27;;;12.63;;
7199;SDS011;3641;49.082;8.200;2023-03-01T03:24:41;24.85;;;12.32;;
7199;SDS011;3641;49.082;8.200;2023-03-01T03:27:08;25.45;;;13.38;;
7199;SDS011;3641;49.082;8.200;2023-03-01T03:29:34;24.17;;;13.30;;
7199;SDS011;3641;49.082;8.200;2023-03-01T03:32:01;24.73;;;13.18;;
7199;SDS011;3641;49.082;8.200;2023-03-01T03:34:28;25.80;;;14.02;;
7199;SDS011;3641;49.082;8.200;2023-03-01T03:36:56;25.30;;;13.70;;
7199;SDS011;3641;49.082;8.200;2023-03-01T03:39:24;26.58;;;13.35;;
7199;SDS011;3641;49.082;8.200;2023-03-01T03:41:50;26.83;;;13.15;;
7199;SDS011;3641;49.082;8.200;2023-03-01T03:44:17;26.98;;;13.23;;
7199;SDS011;3641;49.082;8.200;2023-03-01T03:46:43;26.13;;;13.90;;
7199;SDS011;3641;49.082;8.200;2023-03-01T03:49:10;26.08;;;13.77;;
7199;SDS011;3641;49.082;8.200;2023-03-01T03:51:36;24.73;;;13.50;;
7199;SDS011;3641;49.082;8.200;2023-03-01T03:54:04;26.80;;;13.55;;
7199;SDS011;3641;49.082;8.200;2023-03-01T03:56:31;28.83;;;13.82;;
7199;SDS011;3641;49.082;8.200;2023-03-01T03:58:57;23.35;;;13.15;;
7199;SDS011;3641;49.082;8.200;2023-03-01T04:01:24;26.08;;;13.88;;
7199;SDS011;3641;49.082;8.200;2023-03-01T04:03:50;28.50;;;13.93;;
7199;SDS011;3641;49.082;8.200;2023-03-01T04:06:19;27.27;;;14.10;;
7199;SDS011;3641;49.082;8.200;2023-03-01T04:08:46;25.08;;;14.05;;
7199;SDS011;3641;49.082;8.200;2023-03-01T04:11:17;27.33;;;13.73;;
7199;SDS011;3641;49.082;8.200;2023-03-01T04:13:53;28.02;;;14.95;;
7199;SDS011;3641;49.082;8.200;2023-03-01T04:16:21;28.52;;;14.80;;
7199;SDS011;3641;49.082;8.200;2023-03-01T04:18:48;26.65;;;13.85;;
7199;SDS011;3641;49.082;8.200;2023-03-01T04:21:15;27.90;;;14.80;;
7199;SDS011;3641;49.082;8.200;2023-03-01T04:23:42;25.83;;;13.98;;
7199;SDS011;3641;49.082;8.200;2023-03-01T04:26:09;28.77;;;14.35;;
7199;SDS011;3641;49.082;8.200;2023-03-01T04:28:37;26.30;;;14.30;;
7199;SDS011;3641;49.082;8.200;2023-03-01T04:31:08;25.73;;;13.70;;
7199;SDS011;3641;49.082;8.200;2023-03-01T04:33:39;26.00;;;14.40;;
7199;SDS011;3641;49.082;8.200;2023-03-01T04:36:06;26.75;;;14.95;;
7199;SDS011;3641;49.082;8.200;2023-03-01T04:38:34;27.48;;;14.65;;
7199;SDS011;3641;49.082;8.200;2023-03-01T04:41:02;28.38;;;15.05;;
7199;SDS011;3641;49.082;8.200;2023-03-01T04:43:29;31.33;;;15.02;;
7199;SDS011;3641;49.082;8.200;2023-03-01T04:46:00;25.88;;;14.82;;
7199;SDS011;3641;49.082;8.200;2023-03-01T04:48:28;28.15;;;13.77;;
7199;SDS011;3641;49.082;8.200;2023-03-01T04:50:55;24.77;;;14.15;;
7199;SDS011;3641;49.082;8.200;2023-03-01T04:53:21;29.40;;;15.70;;
7199;SDS011;3641;49.082;8.200;2023-03-01T04:55:48;30.58;;;15.63;;
7199;SDS011;3641;49.082;8.200;2023-03-01T04:58:14;26.67;;;15.60;;
7199;SDS011;3641;49.082;8.200;2023-03-01T05:00:41;27.48;;;14.65;;
7199;SDS011;3641;49.082;8.200;2023-03-01T05:03:08;27.25;;;15.10;;
7199;SDS011;3641;49.082;8.200;2023-03-01T05:05:36;28.13;;;14.43;;
7199;SDS011;3641;49.082;8.200;2023-03-01T05:08:04;25.63;;;13.82;;
7199;SDS011;3641;49.082;8.200;2023-03-01T05:10:33;24.10;;;13.93;;
7199;SDS011;3641;49.082;8.200;2023-03-01T05:13:02;32.67;;;14.98;;
7199;SDS011;3641;49.082;8.200;2023-03-01T05:15:30;25.52;;;13.73;;
7199;SDS011;3641;49.082;8.200;2023-03-01T05:17:58;28.63;;;15.05;;
7199;SDS011;3641;49.082;8.200;2023-03-01T05:20:27;26.17;;;14.38;;
7199;SDS011;3641;49.082;8.200;2023-03-01T05:22:55;30.45;;;15.30;;
7199;SDS011;3641;49.082;8.200;2023-03-01T05:25:23;27.45;;;14.45;;
7199;SDS011;3641;49.082;8.200;2023-03-01T05:27:50;26.63;;;14.18;;
7199;SDS011;3641;49.082;8.200;2023-03-01T05:30:17;30.00;;;15.23;;
7199;SDS011;3641;49.082;8.200;2023-03-01T05:32:44;32.60;;;16.08;;
7199;SDS011;3641;49.082;8.200;2023-03-01T05:35:12;30.33;;;16.15;;
7199;SDS011;3641;49.082;8.200;2023-03-01T05:37:42;29.02;;;14.57;;
7199;SDS011;3641;49.082;8.200;2023-03-01T05:40:10;28.35;;;15.20;;
7199;SDS011;3641;49.082;8.200;2023-03-01T05:42:42;30.65;;;15.40;;
7199;SDS011;3641;49.082;8.200;2023-03-01T05:45:09;28.67;;;14.80;;
7199;SDS011;3641;49.082;8.200;2023-03-01T05:47:37;31.30;;;15.43;;
7199;SDS011;3641;49.082;8.200;2023-03-01T05:50:04;32.22;;;16.02;;
7199;SDS011;3641;49.082;8.200;2023-03-01T05:52:32;36.15;;;17.02;;
7199;SDS011;3641;49.082;8.200;2023-03-01T05:55:00;31.98;;;15.77;;
7199;SDS011;3641;49.082;8.200;2023-03-01T05:57:27;27.55;;;15.07;;
7199;SDS011;3641;49.082;8.200;2023-03-01T05:59:54;30.35;;;15.57;;
7199;SDS011;3641;49.082;8.200;2023-03-01T06:02:20;29.50;;;15.73;;
7199;SDS011;3641;49.082;8.200;2023-03-01T06:04:47;30.33;;;15.65;;
7199;SDS011;3641;49.082;8.200;2023-03-01T06:07:13;30.13;;;15.38;;
7199;SDS011;3641;49.082;8.200;2023-03-01T06:09:40;28.88;;;15.32;;
7199;SDS011;3641;49.082;8.200;2023-03-01T06:12:07;28.95;;;15.75;;
7199;SDS011;3641;49.082;8.200;2023-03-01T06:14:34;33.38;;;16.70;;
7199;SDS011;3641;49.082;8.200;2023-03-01T06:17:00;35.35;;;17.42;;
7199;SDS011;3641;49.082;8.200;2023-03-01T06:19:27;32.75;;;17.48;;
7199;SDS011;3641;49.082;8.200;2023-03-01T06:21:53;31.65;;;16.52;;
7199;SDS011;3641;49.082;8.200;2023-03-01T06:24:21;32.67;;;16.60;;
7199;SDS011;3641;49.082;8.200;2023-03-01T06:26:48;30.80;;;15.77;;
7199;SDS011;3641;49.082;8.200;2023-03-01T06:29:15;36.42;;;16.23;;
7199;SDS011;3641;49.082;8.200;2023-03-01T06:31:42;29.08;;;15.93;;
7199;SDS011;3641;49.082;8.200;2023-03-01T06:34:09;33.50;;;16.70;;
7199;SDS011;3641;49.082;8.200;2023-03-01T06:36:38;39.03;;;18.60;;
7199;SDS011;3641;49.082;8.200;2023-03-01T06:39:05;31.52;;;17.02;;
7199;SDS011;3641;49.082;8.200;2023-03-01T06:41:31;31.00;;;16.23;;
7199;SDS011;3641;49.082;8.200;2023-03-01T06:43:58;33.85;;;16.83;;
7199;SDS011;3641;49.082;8.200;2023-03-01T06:46:27;31.83;;;16.23;;
7199;SDS011;3641;49.082;8.200;2023-03-01T06:48:53;42.03;;;17.33;;
7199;SDS011;3641;49.082;8.200;2023-03-01T06:51:20;34.20;;;16.75;;
7199;SDS011;3641;49.082;8.200;2023-03-01T06:53:46;34.47;;;17.15;;
7199;SDS011;3641;49.082;8.200;2023-03-01T06:56:12;36.65;;;17.38;;
7199;SDS011;3641;49.082;8.200;2023-03-01T06:58:39;33.17;;;17.02;;
7199;SDS011;3641;49.082;8.200;2023-03-01T07:01:06;28.98;;;16.05;;
7199;SDS011;3641;49.082;8.200;2023-03-01T07:03:35;31.98;;;17.08;;
7199;SDS011;3641;49.082;8.200;2023-03-01T07:06:01;37.13;;;17.55;;
7199;SDS011;3641;49.082;8.200;2023-03-01T07:08:28;31.15;;;16.67;;
7199;SDS011;3641;49.082;8.200;2023-03-01T07:10:55;32.22;;;15.98;;
7199;SDS011;3641;49.082;8.200;2023-03-01T07:13:21;35.22;;;17.05;;
7199;SDS011;3641;49.082;8.200;2023-03-01T07:15:48;35.35;;;17.08;;
7199;SDS011;3641;49.082;8.200;2023-03-01T07:18:14;32.10;;;16.52;;
7199;SDS011;3641;49.082;8.200;2023-03-01T07:20:42;32.75;;;16.30;;
7199;SDS011;3641;49.082;8.200;2023-03-01T07:23:09;32.17;;;15.90;;
7199;SDS011;3641;49.082;8.200;2023-03-01T07:25:35;30.90;;;16.52;;
7199;SDS011;3641;49.082;8.200;2023-03-01T07:28:02;34.25;;;18.48;;
7199;SDS011;3641;49.082;8.200;2023-03-01T07:30:28;30.40;;;17.02;;
7199;SDS011;3641;49.082;8.200;2023-03-01T07:32:56;31.80;;;17.35;;
7199;SDS011;3641;49.082;8.200;2023-03-01T07:35:24;32.05;;;15.88;;
7199;SDS011;3641;49.082;8.200;2023-03-01T07:37:53;36.22;;;17.25;;
7199;SDS011;3641;49.082;8.200;2023-03-01T07:40:20;33.00;;;16.50;;
7199;SDS011;3641;49.082;8.200;2023-03-01T07:42:46;31.33;;;16.73;;
7199;SDS011;3641;49.082;8.200;2023-03-01T07:45:12;31.92;;;16.98;;
7199;SDS011;3641;49.082;8.200;2023-03-01T07:47:39;33.90;;;17.73;;
7199;SDS011;3641;49.082;8.200;2023-03-01T07:50:06;35.22;;;17.25;;
7199;SDS011;3641;49.082;8.200;2023-03-01T07:52:33;34.47;;;17.48;;
7199;SDS011;3641;49.082;8.200;2023-03-01T07:55:01;37.28;;;17.80;;
7199;SDS011;3641;49.082;8.200;2023-03-01T07:57:28;34.20;;;17.00;;
7199;SDS011;3641;49.082;8.200;2023-03-01T07:59:54;35.88;;;17.08;;
7199;SDS011;3641;49.082;8.200;2023-03-01T08:02:21;37.55;;;18.05;;
7199;SDS011;3641;49.082;8.200;2023-03-01T08:04:47;33.13;;;17.55;;
7199;SDS011;3641;49.082;8.200;2023-03-01T08:07:14;36.60;;;18.10;;
7199;SDS011;3641;49.082;8.200;2023-03-01T08:09:40;35.28;;;17.98;;
7199;SDS011;3641;49.082;8.200;2023-03-01T08:12:08;34.85;;;16.83;;
7199;SDS011;3641;49.082;8.200;2023-03-01T08:14:34;35.58;;;17.63;;
7199;SDS011;3641;49.082;8.200;2023-03-01T08:17:01;33.55;;;18.20;;
7199;SDS011;3641;49.082;8.200;2023-03-01T08:19:29;31.77;;;17.17;;
7199;SDS011;3641;49.082;8.200;2023-03-01T08:21:56;34.65;;;17.55;;
7199;SDS011;3641;49.082;8.200;2023-03-01T08:24:23;35.95;;;18.30;;
7199;SDS011;3641;49.082;8.200;2023-03-01T08:26:50;35.67;;;18.27;;
7199;SDS011;3641;49.082;8.200;2023-03-01T08:29:17;34.65;;;17.33;;
7199;SDS011;3641;49.082;8.200;2023-03-01T08:31:44;36.30;;;18.08;;
7199;SDS011;3641;49.082;8.200;2023-03-01T08:34:11;33.42;;;17.30;;
7199;SDS011;3641;49.082;8.200;2023-03-01T08:36:40;39.20;;;18.55;;
7199;SDS011;3641;49.082;8.200;2023-03-01T08:39:08;35.67;;;18.30;;
7199;SDS011;3641;49.082;8.200;2023-03-01T08:41:36;38.47;;;18.60;;
7199;SDS011;3641;49.082;8.200;2023-03-01T08:44:03;38.42;;;18.90;;
7199;SDS011;3641;49.082;8.200;2023-03-01T08:46:31;35.00;;;18.73;;
7199;SDS011;3641;49.082;8.200;2023-03-01T08:49:02;32.95;;;17.58;;
7199;SDS011;3641;49.082;8.200;2023-03-01T08:51:30;33.30;;;17.50;;
7199;SDS011;3641;49.082;8.200;2023-03-01T08:53:57;34.08;;;18.13;;
7199;SDS011;3641;49.082;8.200;2023-03-01T08:56:24;35.38;;;18.30;;
7199;SDS011;3641;49.082;8.200;2023-03-01T08:58:50;34.58;;;18.30;;
7199;SDS011;3641;49.082;8.200;2023-03-01T09:01:17;36.50;;;17.73;;
7199;SDS011;3641;49.082;8.200;2023-03-01T09:03:46;35.10;;;17.70;;
7199;SDS011;3641;49.082;8.200;2023-03-01T09:06:12;33.55;;;18.02;;
7199;SDS011;3641;49.082;8.200;2023-03-01T09:08:40;35.42;;;17.73;;
7199;SDS011;3641;49.082;8.200;2023-03-01T09:11:09;34.17;;;18.23;;
7199;SDS011;3641;49.082;8.200;2023-03-01T09:13:37;37.00;;;18.65;;
7199;SDS011;3641;49.082;8.200;2023-03-01T09:16:04;34.88;;;16.90;;
7199;SDS011;3641;49.082;8.200;2023-03-01T09:18:32;34.38;;;17.17;;
7199;SDS011;3641;49.082;8.200;2023-03-01T09:21:04;37.50;;;17.88;;
7199;SDS011;3641;49.082;8.200;2023-03-01T09:23:33;34.53;;;17.33;;
7199;SDS011;3641;49.082;8.200;2023-03-01T09:26:01;36.67;;;18.83;;
7199;SDS011;3641;49.082;8.200;2023-03-01T09:28:28;32.83;;;17.02;;
7199;SDS011;3641;49.082;8.200;2023-03-01T09:30:57;33.40;;;18.30;;
7199;SDS011;3641;49.082;8.200;2023-03-01T09:33:24;34.15;;;17.00;;
7199;SDS011;3641;49.082;8.200;2023-03-01T09:35:55;31.70;;;17.60;;
7199;SDS011;3641;49.082;8.200;2023-03-01T09:38:23;31.85;;;17.77;;
7199;SDS011;3641;49.082;8.200;2023-03-01T09:40:50;31.75;;;17.27;;
7199;SDS011;3641;49.082;8.200;2023-03-01T09:43:18;32.47;;;17.33;;
7199;SDS011;3641;49.082;8.200;2023-03-01T09:45:49;32.35;;;17.00;;
7199;SDS011;3641;49.082;8.200;2023-03-01T09:48:20;37.35;;;18.55;;
7199;SDS011;3641;49.082;8.200;2023-03-01T09:50:49;35.33;;;17.77;;
7199;SDS011;3641;49.082;8.200;2023-03-01T09:53:17;37.75;;;18.02;;
7199;SDS011;3641;49.082;8.200;2023-03-01T09:55:48;34.60;;;17.65;;
7199;SDS011;3641;49.082;8.200;2023-03-01T09:58:27;34.45;;;18.02;;
7199;SDS011;3641;49.082;8.200;2023-03-01T10:00:57;38.42;;;18.38;;
7199;SDS011;3641;49.082;8.200;2023-03-01T10:03:31;38.20;;;19.13;;
7199;SDS011;3641;49.082;8.200;2023-03-01T10:06:04;39.17;;;20.25;;
7199;SDS011;3641;49.082;8.200;2023-03-01T10:08:38;32.40;;;17.25;;
7199;SDS011;3641;49.082;8.200;2023-03-01T10:11:16;33.25;;;17.65;;
7199;SDS011;3641;49.082;8.200;2023-03-01T10:13:48;32.72;;;17.58;;
7199;SDS011;3641;49.082;8.200;2023-03-01T10:16:21;32.85;;;18.63;;
7199;SDS011;3641;49.082;8.200;2023-03-01T10:18:53;31.92;;;16.88;;
7199;SDS011;3641;49.082;8.200;2023-03-01T10:21:25;30.27;;;16.35;;
7199;SDS011;3641;49.082;8.200;2023-03-01T10:23:53;31.00;;;17.02;;
7199;SDS011;3641;49.082;8.200;2023-03-01T10:26:33;32.13;;;17.50;;
7199;SDS011;3641;49.082;8.200;2023-03-01T10:29:09;33.55;;;17.45;;
7199;SDS011;3641;49.082;8.200;2023-03-01T10:31:39;30.77;;;17.75;;
7199;SDS011;3641;49.082;8.200;2023-03-01T10:34:12;31.67;;;17.98;;
7199;SDS011;3641;49.082;8.200;2023-03-01T10:36:41;30.77;;;17.63;;
7199;SDS011;3641;49.082;8.200;2023-03-01T10:39:12;31.77;;;17.33;;
7199;SDS011;3641;49.082;8.200;2023-03-01T10:41:54;32.47;;;18.30;;
7199;SDS011;3641;49.082;8.200;2023-03-01T10:47:17;30.92;;;18.33;;
7199;SDS011;3641;49.082;8.200;2023-03-01T10:49:53;30.27;;;18.33;;
7199;SDS011;3641;49.082;8.200;2023-03-01T10:52:25;31.67;;;18.20;;
7199;SDS011;3641;49.082;8.200;2023-03-01T10:54:55;30.90;;;18.65;;
7199;SDS011;3641;49.082;8.200;2023-03-01T10:57:34;30.60;;;18.27;;
7199;SDS011;3641;49.082;8.200;2023-03-01T11:00:17;32.53;;;17.38;;
7199;SDS011;3641;49.082;8.200;2023-03-01T11:02:49;37.05;;;19.52;;
7199;SDS011;3641;49.082;8.200;2023-03-01T11:05:27;31.20;;;18.55;;
7199;SDS011;3641;49.082;8.200;2023-03-01T11:07:56;34.13;;;17.33;;
7199;SDS011;3641;49.082;8.200;2023-03-01T11:10:26;30.25;;;18.02;;
7199;SDS011;3641;49.082;8.200;2023-03-01T11:13:05;30.65;;;18.00;;
7199;SDS011;3641;49.082;8.200;2023-03-01T11:15:33;33.92;;;17.85;;
7199;SDS011;3641;49.082;8.200;2023-03-01T11:17:59;33.15;;;18.73;;
7199;SDS011;3641;49.082;8.200;2023-03-01T11:20:27;30.67;;;18.95;;
7199;SDS011;3641;49.082;8.200;2023-03-01T11:22:57;34.35;;;19.38;;
7199;SDS011;3641;49.082;8.200;2023-03-01T11:25:27;34.47;;;19.60;;
7199;SDS011;3641;49.082;8.200;2023-03-01T11:27:59;32.10;;;17.70;;
7199;SDS011;3641;49.082;8.200;2023-03-01T11:30:28;29.98;;;17.80;;
7199;SDS011;3641;49.082;8.200;2023-03-01T11:33:02;32.97;;;18.55;;
7199;SDS011;3641;49.082;8.200;2023-03-01T11:35:41;30.75;;;18.15;;
7199;SDS011;3641;49.082;8.200;2023-03-01T11:38:15;29.35;;;18.00;;
7199;SDS011;3641;49.082;8.200;2023-03-01T11:40:46;35.42;;;18.65;;
7199;SDS011;3641;49.082;8.200;2023-03-01T11:43:20;34.28;;;18.33;;
7199;SDS011;3641;49.082;8.200;2023-03-01T11:45:56;31.98;;;17.98;;
7199;SDS011;3641;49.082;8.200;2023-03-01T11:48:52;33.08;;;17.42;;
7199;SDS011;3641;49.082;8.200;2023-03-01T11:51:37;32.60;;;17.25;;
7199;SDS011;3641;49.082;8.200;2023-03-01T11:54:13;34.10;;;18.05;;
7199;SDS011;3641;49.082;8.200;2023-03-01T11:56:50;31.27;;;17.65;;
7199;SDS011;3641;49.082;8.200;2023-03-01T11:59:27;30.30;;;17.23;;
7199;SDS011;3641;49.082;8.200;2023-03-01T12:02:36;33.28;;;18.17;;
7199;SDS011;3641;49.082;8.200;2023-03-01T12:05:35;30.63;;;17.33;;
7199;SDS011;3641;49.082;8.200;2023-03-01T12:08:16;32.15;;;16.88;;
7199;SDS011;3641;49.082;8.200;2023-03-01T12:10:48;29.60;;;17.55;;
7199;SDS011;3641;49.082;8.200;2023-03-01T12:13:26;29.83;;;17.92;;
7199;SDS011;3641;49.082;8.200;2023-03-01T12:16:17;32.25;;;17.63;;
7199;SDS011;3641;49.082;8.200;2023-03-01T12:18:56;33.15;;;18.52;;
7199;SDS011;3641;49.082;8.200;2023-03-01T12:21:35;34.90;;;17.95;;
7199;SDS011;3641;49.082;8.200;2023-03-01T12:27:08;31.20;;;17.50;;
7199;SDS011;3641;49.082;8.200;2023-03-01T12:29:46;28.65;;;16.75;;
7199;SDS011;3641;49.082;8.200;2023-03-01T12:35:20;28.50;;;17.65;;
7199;SDS011;3641;49.082;8.200;2023-03-01T12:38:00;32.17;;;17.65;;
7199;SDS011;3641;49.082;8.200;2023-03-01T12:40:52;29.35;;;16.90;;
7199;SDS011;3641;49.082;8.200;2023-03-01T12:43:35;33.03;;;17.52;;
7199;SDS011;3641;49.082;8.200;2023-03-01T12:46:21;31.35;;;17.85;;
7199;SDS011;3641;49.082;8.200;2023-03-01T12:48:59;29.45;;;16.85;;
7199;SDS011;3641;49.082;8.200;2023-03-01T12:51:32;30.73;;;17.80;;
7199;SDS011;3641;49.082;8.200;2023-03-01T12:54:01;30.15;;;17.58;;
7199;SDS011;3641;49.082;8.200;2023-03-01T12:56:36;30.85;;;17.35;;
7199;SDS011;3641;49.082;8.200;2023-03-01T12:59:06;30.30;;;17.60;;
7199;SDS011;3641;49.082;8.200;2023-03-01T13:01:40;31.02;;;17.35;;
7199;SDS011;3641;49.082;8.200;2023-03-01T13:04:23;29.25;;;17.17;;
7199;SDS011;3641;49.082;8.200;2023-03-01T13:06:59;31.42;;;17.30;;
7199;SDS011;3641;49.082;8.200;2023-03-01T13:09:38;31.73;;;17.13;;
7199;SDS011;3641;49.082;8.200;2023-03-01T13:15:26;25.80;;;15.75;;
7199;SDS011;3641;49.082;8.200;2023-03-01T13:17:58;27.10;;;16.25;;
7199;SDS011;3641;49.082;8.200;2023-03-01T13:20:27;24.65;;;14.75;;
7199;SDS011;3641;49.082;8.200;2023-03-01T13:23:02;29.50;;;16.15;;
7199;SDS011;3641;49.082;8.200;2023-03-01T13:25:32;30.20;;;15.85;;
7199;SDS011;3641;49.082;8.200;2023-03-01T13:31:03;26.05;;;15.20;;
7199;SDS011;3641;49.082;8.200;2023-03-01T13:33:40;29.85;;;16.63;;
7199;SDS011;3641;49.082;8.200;2023-03-01T13:36:09;25.55;;;15.30;;
7199;SDS011;3641;49.082;8.200;2023-03-01T13:38:45;26.15;;;14.63;;
7199;SDS011;3641;49.082;8.200;2023-03-01T13:41:13;25.77;;;14.90;;
7199;SDS011;3641;49.082;8.200;2023-03-01T13:43:41;25.17;;;15.35;;
7199;SDS011;3641;49.082;8.200;2023-03-01T13:46:10;29.63;;;15.18;;
7199;SDS011;3641;49.082;8.200;2023-03-01T13:48:42;25.17;;;15.45;;
7199;SDS011;3641;49.082;8.200;2023-03-01T13:51:14;29.85;;;15.65;;
7199;SDS011;3641;49.082;8.200;2023-03-01T13:53:42;28.15;;;15.65;;
7199;SDS011;3641;49.082;8.200;2023-03-01T13:56:12;26.05;;;15.20;;
7199;SDS011;3641;49.082;8.200;2023-03-01T13:58:46;23.90;;;15.10;;
7199;SDS011;3641;49.082;8.200;2023-03-01T14:01:23;27.15;;;15.80;;
7199;SDS011;3641;49.082;8.200;2023-03-01T14:03:51;31.20;;;16.98;;
7199;SDS011;3641;49.082;8.200;2023-03-01T14:06:21;29.88;;;17.30;;
7199;SDS011;3641;49.082;8.200;2023-03-01T14:08:52;28.65;;;17.70;;
7199;SDS011;3641;49.082;8.200;2023-03-01T14:14:31;31.13;;;17.30;;
7199;SDS011;3641;49.082;8.200;2023-03-01T14:17:10;37.33;;;17.83;;
7199;SDS011;3641;49.082;8.200;2023-03-01T14:19:56;31.50;;;17.60;;
7199;SDS011;3641;49.082;8.200;2023-03-01T14:22:26;30.67;;;17.83;;
7199;SDS011;3641;49.082;8.200;2023-03-01T14:24:55;31.67;;;16.83;;
7199;SDS011;3641;49.082;8.200;2023-03-01T14:27:23;33.72;;;16.08;;
7199;SDS011;3641;49.082;8.200;2023-03-01T14:29:56;26.58;;;16.38;;
7199;SDS011;3641;49.082;8.200;2023-03-01T14:32:25;28.92;;;16.88;;
7199;SDS011;3641;49.082;8.200;2023-03-01T14:34:53;28.60;;;16.98;;
7199;SDS011;3641;49.082;8.200;2023-03-01T14:37:20;30.30;;;17.42;;
7199;SDS011;3641;49.082;8.200;2023-03-01T14:39:51;29.63;;;17.30;;
7199;SDS011;3641;49.082;8.200;2023-03-01T14:42:19;28.33;;;16.98;;
7199;SDS011;3641;49.082;8.200;2023-03-01T14:44:48;27.98;;;17.40;;
7199;SDS011;3641;49.082;8.200;2023-03-01T14:47:20;34.95;;;17.27;;
7199;SDS011;3641;49.082;8.200;2023-03-01T14:49:54;31.73;;;17.35;;
7199;SDS011;3641;49.082;8.200;2023-03-01T14:52:25;33.70;;;18.08;;
7199;SDS011;3641;49.082;8.200;2023-03-01T14:55:01;31.13;;;17.48;;
7199;SDS011;3641;49.082;8.200;2023-03-01T14:57:30;29.02;;;17.17;;
7199;SDS011;3641;49.082;8.200;2023-03-01T14:59:57;27.60;;;16.90;;
7199;SDS011;3641;49.082;8.200;2023-03-01T15:02:29;31.02;;;16.63;;
7199;SDS011;3641;49.082;8.200;2023-03-01T15:04:57;27.80;;;16.23;;
7199;SDS011;3641;49.082;8.200;2023-03-01T15:07:27;28.08;;;15.73;;
7199;SDS011;3641;49.082;8.200;2023-03-01T15:09:57;30.58;;;16.60;;
7199;SDS011;3641;49.082;8.200;2023-03-01T15:12:32;29.45;;;16.80;;
7199;SDS011;3641;49.082;8.200;2023-03-01T15:15:06;31.10;;;15.70;;
7199;SDS011;3641;49.082;8.200;2023-03-01T15:17:48;26.42;;;15.50;;
7199;SDS011;3641;49.082;8.200;2023-03-01T15:20:20;24.52;;;14.90;;
7199;SDS011;3641;49.082;8.200;2023-03-01T15:22:50;28.38;;;16.10;;